N312CL KPDT-KCYS
Flight info
| Callsign | N312CL |
|---|---|
| Flight time | N/A |
| Altitude | 35000 |
| Route | PDT J20 DNJ J82 DBS CYS |
| Aircraft | C510/L-SDFGRWY/LB1 |
Departure
| Time | N/A |
|---|---|
| Airport | Eastern Oregon Regional Airport at Pendleton (KPDT) |
Arrival
| Time | 2026-04-24 21:01 |
|---|---|
| Airport | Cheyenne Regional Jerry Olson Field (KCYS) |
| Time | Latitude | Longitude | Altitude | Speed | Heading |
|---|---|---|---|---|---|
| 2026-04-24 18:54 | 45.21735 | -117.49209 | 26538 ft | 308 kts | 110° |
| 2026-04-24 18:55 | 45.19859 | -117.43741 | 26813 ft | 309 kts | 109° |
| 2026-04-24 18:55 | 45.18920 | -117.40990 | 26909 ft | 310 kts | 109° |
| 2026-04-24 18:55 | 45.17975 | -117.38238 | 26995 ft | 310 kts | 110° |
| 2026-04-24 18:56 | 45.17030 | -117.35488 | 27102 ft | 310 kts | 110° |
| 2026-04-24 18:56 | 45.16084 | -117.32739 | 27230 ft | 311 kts | 109° |
| 2026-04-24 18:56 | 45.15134 | -117.29972 | 27333 ft | 312 kts | 110° |
| 2026-04-24 18:56 | 45.14179 | -117.27204 | 27443 ft | 313 kts | 109° |
| 2026-04-24 18:57 | 45.13224 | -117.24435 | 27581 ft | 313 kts | 109° |
| 2026-04-24 18:57 | 45.12281 | -117.21702 | 27683 ft | 313 kts | 109° |
| 2026-04-24 18:57 | 45.11323 | -117.18925 | 27811 ft | 314 kts | 109° |
| 2026-04-24 18:57 | 45.10363 | -117.16150 | 27881 ft | 314 kts | 109° |
| 2026-04-24 18:58 | 45.09398 | -117.13368 | 28006 ft | 316 kts | 109° |
| 2026-04-24 18:58 | 45.08430 | -117.10569 | 28110 ft | 317 kts | 109° |
| 2026-04-24 18:58 | 45.07455 | -117.07758 | 28217 ft | 318 kts | 109° |
| 2026-04-24 18:58 | 45.06475 | -117.04943 | 28320 ft | 319 kts | 110° |
| 2026-04-24 18:59 | 45.05494 | -117.02122 | 28449 ft | 319 kts | 109° |
| 2026-04-24 18:59 | 45.04518 | -116.99313 | 28614 ft | 318 kts | 109° |
| 2026-04-24 18:59 | 45.03540 | -116.96503 | 28735 ft | 319 kts | 109° |
| 2026-04-24 19:00 | 45.01570 | -116.90870 | 28869 ft | 320 kts | 109° |
| 2026-04-24 19:00 | 44.99599 | -116.85226 | 29055 ft | 320 kts | 109° |
| 2026-04-24 19:01 | 44.97628 | -116.79601 | 29219 ft | 322 kts | 109° |
| 2026-04-24 19:01 | 44.95627 | -116.73908 | 29338 ft | 324 kts | 109° |
| 2026-04-24 19:02 | 44.93959 | -116.69164 | 29474 ft | 325 kts | 109° |
| 2026-04-24 19:02 | 44.91599 | -116.62472 | 29652 ft | 326 kts | 109° |
| 2026-04-24 19:03 | 44.89570 | -116.56730 | 29790 ft | 327 kts | 110° |
| 2026-04-24 19:03 | 44.87534 | -116.50981 | 29907 ft | 328 kts | 110° |
| 2026-04-24 19:04 | 44.85488 | -116.45218 | 30046 ft | 329 kts | 110° |
| 2026-04-24 19:04 | 44.83436 | -116.39451 | 30070 ft | 334 kts | 111° |
| 2026-04-24 19:05 | 44.81344 | -116.33579 | 30213 ft | 334 kts | 110° |
| 2026-04-24 19:05 | 44.79262 | -116.27748 | 30363 ft | 334 kts | 111° |
| 2026-04-24 19:06 | 44.77172 | -116.21896 | 30433 ft | 334 kts | 109° |
| 2026-04-24 19:06 | 44.76438 | -116.18834 | 30464 ft | 327 kts | 96° |
| 2026-04-24 19:06 | 44.75983 | -116.15705 | 30495 ft | 327 kts | 95° |
| 2026-04-24 19:07 | 44.75017 | -116.09446 | 30578 ft | 328 kts | 96° |
| 2026-04-24 19:07 | 44.74232 | -116.04221 | 30640 ft | 328 kts | 96° |
| 2026-04-24 19:08 | 44.73109 | -115.96861 | 30652 ft | 334 kts | 97° |
| 2026-04-24 19:08 | 44.72128 | -115.90441 | 30661 ft | 338 kts | 97° |
| 2026-04-24 19:09 | 44.71134 | -115.83982 | 30733 ft | 338 kts | 97° |
| 2026-04-24 19:09 | 44.70140 | -115.77530 | 30871 ft | 337 kts | 97° |
| 2026-04-24 19:10 | 44.69139 | -115.71072 | 30943 ft | 338 kts | 97° |
| 2026-04-24 19:10 | 44.68135 | -115.64610 | 31009 ft | 339 kts | 97° |
| 2026-04-24 19:11 | 44.67126 | -115.58135 | 31050 ft | 340 kts | 97° |
| 2026-04-24 19:11 | 44.66109 | -115.51647 | 31123 ft | 340 kts | 97° |
| 2026-04-24 19:12 | 44.65090 | -115.45169 | 31149 ft | 343 kts | 98° |
| 2026-04-24 19:12 | 44.64051 | -115.38593 | 31143 ft | 347 kts | 98° |
| 2026-04-24 19:13 | 44.63348 | -115.34160 | 31190 ft | 348 kts | 98° |
| 2026-04-24 19:13 | 44.62643 | -115.29729 | 31302 ft | 346 kts | 99° |
| 2026-04-24 19:13 | 44.62126 | -115.26475 | 31345 ft | 346 kts | 99° |
| 2026-04-24 19:14 | 44.61070 | -115.19868 | 31405 ft | 347 kts | 99° |
| 2026-04-24 19:14 | 44.60010 | -115.13251 | 31463 ft | 348 kts | 99° |
| 2026-04-24 19:15 | 44.58949 | -115.06661 | 31503 ft | 348 kts | 99° |
| 2026-04-24 19:15 | 44.57872 | -115.00001 | 31555 ft | 348 kts | 99° |
| 2026-04-24 19:16 | 44.56256 | -114.90056 | 31573 ft | 352 kts | 100° |
| 2026-04-24 19:16 | 44.55159 | -114.83335 | 31595 ft | 355 kts | 100° |
| 2026-04-24 19:17 | 44.54057 | -114.76611 | 31677 ft | 353 kts | 100° |
| 2026-04-24 19:17 | 44.52951 | -114.69888 | 31730 ft | 354 kts | 100° |
| 2026-04-24 19:18 | 44.51839 | -114.63162 | 31796 ft | 354 kts | 100° |
| 2026-04-24 19:18 | 44.50725 | -114.56437 | 31842 ft | 355 kts | 100° |
| 2026-04-24 19:19 | 44.49610 | -114.49739 | 31891 ft | 355 kts | 100° |
| 2026-04-24 19:19 | 44.48483 | -114.43000 | 31915 ft | 356 kts | 102° |
| 2026-04-24 19:20 | 44.47345 | -114.36214 | 31923 ft | 359 kts | 101° |
| 2026-04-24 19:20 | 44.46195 | -114.29392 | 31971 ft | 360 kts | 102° |
| 2026-04-24 19:21 | 44.45041 | -114.22566 | 31997 ft | 360 kts | 102° |
| 2026-04-24 19:21 | 44.43881 | -114.15740 | 32037 ft | 361 kts | 102° |
| 2026-04-24 19:22 | 44.42722 | -114.08941 | 32090 ft | 361 kts | 102° |
| 2026-04-24 19:22 | 44.41554 | -114.02105 | 32134 ft | 361 kts | 102° |
| 2026-04-24 19:23 | 44.40379 | -113.95271 | 32187 ft | 361 kts | 102° |
| 2026-04-24 19:23 | 44.39197 | -113.88413 | 32181 ft | 363 kts | 103° |
| 2026-04-24 19:24 | 44.38014 | -113.81581 | 32214 ft | 365 kts | 103° |
| 2026-04-24 19:24 | 44.36805 | -113.74632 | 32214 ft | 366 kts | 103° |
| 2026-04-24 19:25 | 44.35605 | -113.67748 | 32223 ft | 367 kts | 103° |
| 2026-04-24 19:25 | 44.34390 | -113.60811 | 32258 ft | 367 kts | 103° |
| 2026-04-24 19:26 | 44.33172 | -113.53879 | 32303 ft | 367 kts | 103° |
| 2026-04-24 19:26 | 44.31948 | -113.46941 | 32334 ft | 368 kts | 103° |
| 2026-04-24 19:27 | 44.30719 | -113.40008 | 32363 ft | 368 kts | 103° |
| 2026-04-24 19:27 | 44.29488 | -113.33084 | 32432 ft | 367 kts | 103° |
| 2026-04-24 19:28 | 44.28251 | -113.26160 | 32475 ft | 367 kts | 104° |
| 2026-04-24 19:28 | 44.27012 | -113.19243 | 32508 ft | 368 kts | 103° |
| 2026-04-24 19:29 | 44.25143 | -113.08861 | 32527 ft | 368 kts | 103° |
| 2026-04-24 19:30 | 44.23897 | -113.01985 | 32533 ft | 368 kts | 104° |
| 2026-04-24 19:30 | 44.22643 | -112.95070 | 32555 ft | 368 kts | 104° |
| 2026-04-24 19:31 | 44.21382 | -112.88144 | 32585 ft | 368 kts | 105° |
| 2026-04-24 19:31 | 44.20113 | -112.81214 | 32602 ft | 370 kts | 105° |
| 2026-04-24 19:32 | 44.18833 | -112.74237 | 32558 ft | 371 kts | 105° |
| 2026-04-24 19:32 | 44.17555 | -112.67305 | 32549 ft | 372 kts | 105° |
| 2026-04-24 19:33 | 44.16263 | -112.60324 | 32545 ft | 373 kts | 105° |
| 2026-04-24 19:33 | 44.14961 | -112.53317 | 32550 ft | 373 kts | 105° |
| 2026-04-24 19:34 | 44.13657 | -112.46314 | 32548 ft | 374 kts | 105° |
| 2026-04-24 19:34 | 44.12346 | -112.39307 | 32568 ft | 374 kts | 105° |
| 2026-04-24 19:35 | 44.11027 | -112.32284 | 32558 ft | 376 kts | 106° |
| 2026-04-24 19:35 | 44.09704 | -112.25265 | 32555 ft | 377 kts | 106° |
| 2026-04-24 19:36 | 44.08021 | -112.18379 | 32548 ft | 375 kts | 120° |
| 2026-04-24 19:36 | 44.05799 | -112.11803 | 32555 ft | 377 kts | 117° |
| 2026-04-24 19:37 | 44.03554 | -112.05213 | 32575 ft | 377 kts | 118° |
| 2026-04-24 19:37 | 44.01311 | -111.98609 | 32592 ft | 378 kts | 118° |
| 2026-04-24 19:38 | 43.99065 | -111.92030 | 32579 ft | 380 kts | 119° |
| 2026-04-24 19:38 | 43.96791 | -111.85378 | 32595 ft | 382 kts | 119° |
| 2026-04-24 19:39 | 43.94505 | -111.78711 | 32599 ft | 383 kts | 119° |
| 2026-04-24 19:39 | 43.92196 | -111.71997 | 32433 ft | 389 kts | 119° |
| 2026-04-24 19:39 | 43.91017 | -111.68571 | 32177 ft | 397 kts | 119° |
| 2026-04-24 19:40 | 43.89812 | -111.65078 | 31925 ft | 404 kts | 119° |
| 2026-04-24 19:40 | 43.88592 | -111.61540 | 31677 ft | 410 kts | 119° |
| 2026-04-24 19:40 | 43.87352 | -111.57949 | 31411 ft | 416 kts | 120° |
| 2026-04-24 19:40 | 43.86090 | -111.54312 | 31174 ft | 421 kts | 121° |
| 2026-04-24 19:41 | 43.84819 | -111.50640 | 30998 ft | 423 kts | 121° |
| 2026-04-24 19:41 | 43.82303 | -111.43389 | 30998 ft | 417 kts | 121° |
| 2026-04-24 19:42 | 43.79791 | -111.36177 | 30998 ft | 415 kts | 121° |
| 2026-04-24 19:42 | 43.77293 | -111.29018 | 30988 ft | 411 kts | 121° |
| 2026-04-24 19:43 | 43.74811 | -111.21927 | 30964 ft | 408 kts | 122° |
| 2026-04-24 19:43 | 43.72350 | -111.14915 | 30964 ft | 408 kts | 122° |
| 2026-04-24 19:44 | 43.69868 | -111.07864 | 30964 ft | 408 kts | 122° |
| 2026-04-24 19:44 | 43.67376 | -111.00801 | 30965 ft | 408 kts | 122° |
| 2026-04-24 19:45 | 43.64890 | -110.93768 | 30969 ft | 409 kts | 122° |
| 2026-04-24 19:45 | 43.62387 | -110.86712 | 30924 ft | 408 kts | 123° |
| 2026-04-24 19:46 | 43.59892 | -110.79684 | 30931 ft | 408 kts | 123° |
| 2026-04-24 19:46 | 43.57387 | -110.72666 | 30981 ft | 408 kts | 123° |
| 2026-04-24 19:47 | 43.54879 | -110.65638 | 30973 ft | 409 kts | 123° |
| 2026-04-24 19:47 | 43.52356 | -110.58602 | 30963 ft | 410 kts | 123° |
| 2026-04-24 19:48 | 43.49836 | -110.51572 | 30942 ft | 409 kts | 123° |
| 2026-04-24 19:48 | 43.46040 | -110.41044 | 30944 ft | 409 kts | 123° |
| 2026-04-24 19:49 | 43.40975 | -110.27045 | 30935 ft | 410 kts | 123° |
| 2026-04-24 19:50 | 43.35880 | -110.13035 | 30909 ft | 408 kts | 124° |
| 2026-04-24 19:51 | 43.32059 | -110.02576 | 30894 ft | 408 kts | 124° |
| 2026-04-24 19:52 | 43.28226 | -109.92123 | 30887 ft | 410 kts | 124° |
| 2026-04-24 19:52 | 43.25657 | -109.85137 | 30883 ft | 408 kts | 124° |
| 2026-04-24 19:53 | 43.23104 | -109.78204 | 30885 ft | 406 kts | 124° |
| 2026-04-24 19:54 | 43.19252 | -109.67800 | 30880 ft | 410 kts | 124° |
| 2026-04-24 19:54 | 43.16668 | -109.60826 | 30879 ft | 411 kts | 124° |
| 2026-04-24 19:55 | 43.14945 | -109.56203 | 30883 ft | 411 kts | 124° |
| 2026-04-24 19:55 | 43.11482 | -109.46904 | 30861 ft | 411 kts | 124° |
| 2026-04-24 19:56 | 43.08886 | -109.39956 | 30856 ft | 408 kts | 124° |
| 2026-04-24 19:56 | 43.06294 | -109.33044 | 30850 ft | 409 kts | 124° |
| 2026-04-24 19:57 | 43.03712 | -109.26164 | 30850 ft | 409 kts | 124° |
| 2026-04-24 19:57 | 43.01111 | -109.19256 | 30856 ft | 408 kts | 124° |
| 2026-04-24 19:58 | 42.98503 | -109.12351 | 30843 ft | 409 kts | 124° |
| 2026-04-24 19:58 | 42.95892 | -109.05449 | 30873 ft | 409 kts | 125° |
| 2026-04-24 19:59 | 42.93271 | -108.98538 | 30876 ft | 409 kts | 125° |
| 2026-04-24 19:59 | 42.90649 | -108.91641 | 30909 ft | 410 kts | 125° |
| 2026-04-24 20:00 | 42.88034 | -108.84780 | 30900 ft | 410 kts | 125° |
| 2026-04-24 20:00 | 42.85395 | -108.77872 | 30866 ft | 411 kts | 125° |
| 2026-04-24 20:01 | 42.83181 | -108.72091 | 30905 ft | 411 kts | 125° |
| 2026-04-24 20:01 | 42.80529 | -108.65179 | 30907 ft | 412 kts | 125° |
| 2026-04-24 20:02 | 42.77886 | -108.58309 | 30907 ft | 412 kts | 125° |
| 2026-04-24 20:02 | 42.75218 | -108.51391 | 30916 ft | 413 kts | 125° |
| 2026-04-24 20:03 | 42.72537 | -108.44454 | 30924 ft | 414 kts | 125° |
| 2026-04-24 20:03 | 42.69859 | -108.37541 | 30909 ft | 413 kts | 125° |
| 2026-04-24 20:04 | 42.67178 | -108.30641 | 30919 ft | 413 kts | 125° |
| 2026-04-24 20:04 | 42.64487 | -108.23732 | 30892 ft | 414 kts | 125° |
| 2026-04-24 20:05 | 42.61790 | -108.16819 | 30892 ft | 414 kts | 125° |
| 2026-04-24 20:05 | 42.59102 | -108.09950 | 30873 ft | 414 kts | 125° |
| 2026-04-24 20:06 | 42.56397 | -108.03051 | 30870 ft | 413 kts | 126° |
| 2026-04-24 20:06 | 42.53690 | -107.96163 | 30846 ft | 413 kts | 126° |
| 2026-04-24 20:07 | 42.51439 | -107.90452 | 30848 ft | 413 kts | 126° |
| 2026-04-24 20:07 | 42.48271 | -107.82431 | 30817 ft | 413 kts | 126° |
| 2026-04-24 20:08 | 42.45557 | -107.75580 | 30815 ft | 413 kts | 126° |
| 2026-04-24 20:08 | 42.42862 | -107.68783 | 30792 ft | 412 kts | 126° |
| 2026-04-24 20:09 | 42.40147 | -107.61959 | 30793 ft | 412 kts | 126° |
| 2026-04-24 20:09 | 42.37423 | -107.55131 | 30769 ft | 412 kts | 126° |
| 2026-04-24 20:10 | 42.34697 | -107.48308 | 30769 ft | 412 kts | 126° |
| 2026-04-24 20:10 | 42.31970 | -107.41502 | 30745 ft | 412 kts | 126° |
| 2026-04-24 20:11 | 42.29236 | -107.34695 | 30743 ft | 411 kts | 126° |
| 2026-04-24 20:11 | 42.26508 | -107.27917 | 30735 ft | 410 kts | 126° |
| 2026-04-24 20:12 | 42.23773 | -107.21134 | 30734 ft | 412 kts | 126° |
| 2026-04-24 20:12 | 42.21044 | -107.14388 | 30714 ft | 412 kts | 126° |
| 2026-04-24 20:13 | 42.18292 | -107.07599 | 30721 ft | 412 kts | 126° |
| 2026-04-24 20:13 | 42.15540 | -107.00822 | 30721 ft | 411 kts | 126° |
| 2026-04-24 20:14 | 42.12786 | -106.94065 | 30704 ft | 411 kts | 126° |
| 2026-04-24 20:14 | 42.10032 | -106.87311 | 30716 ft | 411 kts | 126° |
| 2026-04-24 20:15 | 42.07288 | -106.80607 | 30712 ft | 411 kts | 126° |
| 2026-04-24 20:15 | 42.04522 | -106.73859 | 30725 ft | 411 kts | 126° |
| 2026-04-24 20:16 | 42.01750 | -106.67113 | 30736 ft | 412 kts | 126° |
| 2026-04-24 20:16 | 41.98979 | -106.60384 | 30734 ft | 411 kts | 126° |
| 2026-04-24 20:17 | 41.96207 | -106.53674 | 30726 ft | 411 kts | 126° |
| 2026-04-24 20:17 | 41.92051 | -106.43635 | 30733 ft | 411 kts | 126° |
| 2026-04-24 20:18 | 41.89244 | -106.36872 | 30731 ft | 412 kts | 126° |
| 2026-04-24 20:18 | 41.86450 | -106.30160 | 30728 ft | 412 kts | 126° |
| 2026-04-24 20:19 | 41.83663 | -106.23478 | 30720 ft | 410 kts | 126° |
| 2026-04-24 20:19 | 41.80890 | -106.16844 | 30718 ft | 409 kts | 126° |
| 2026-04-24 20:20 | 41.78099 | -106.10184 | 30718 ft | 409 kts | 126° |
| 2026-04-24 20:20 | 41.75314 | -106.03553 | 30727 ft | 409 kts | 126° |
| 2026-04-24 20:21 | 41.72525 | -105.96925 | 30715 ft | 407 kts | 126° |
| 2026-04-24 20:21 | 41.69761 | -105.90371 | 30716 ft | 407 kts | 126° |
| 2026-04-24 20:22 | 41.66980 | -105.83792 | 30704 ft | 406 kts | 126° |
| 2026-04-24 20:22 | 41.64200 | -105.77230 | 30706 ft | 405 kts | 126° |
| 2026-04-24 20:23 | 41.61418 | -105.70679 | 30706 ft | 405 kts | 126° |
| 2026-04-24 20:23 | 41.58628 | -105.64123 | 30692 ft | 405 kts | 126° |
| 2026-04-24 20:24 | 41.55858 | -105.57627 | 30698 ft | 404 kts | 126° |
| 2026-04-24 20:24 | 41.53075 | -105.51115 | 30687 ft | 403 kts | 126° |
| 2026-04-24 20:25 | 41.50298 | -105.44631 | 30703 ft | 401 kts | 126° |
| 2026-04-24 20:25 | 41.47525 | -105.38173 | 30738 ft | 401 kts | 126° |
| 2026-04-24 20:26 | 41.44747 | -105.31715 | 30733 ft | 400 kts | 126° |
| 2026-04-24 20:26 | 41.41974 | -105.25282 | 30708 ft | 400 kts | 126° |
| 2026-04-24 20:27 | 41.39216 | -105.18899 | 30677 ft | 399 kts | 125° |
| 2026-04-24 20:27 | 41.36432 | -105.12471 | 30707 ft | 398 kts | 125° |
| 2026-04-24 20:28 | 41.33488 | -105.06354 | 30705 ft | 385 kts | 141° |
| 2026-04-24 20:28 | 41.31409 | -105.04262 | 30708 ft | 368 kts | 160° |
| 2026-04-24 20:28 | 41.29089 | -105.03052 | 30706 ft | 350 kts | 177° |
| 2026-04-24 20:29 | 41.27494 | -105.02731 | 30700 ft | 338 kts | 187° |
| 2026-04-24 20:29 | 41.24502 | -105.03143 | 30699 ft | 317 kts | 206° |
| 2026-04-24 20:29 | 41.22498 | -105.04224 | 30698 ft | 304 kts | 218° |
| 2026-04-24 20:29 | 41.20808 | -105.05818 | 30699 ft | 294 kts | 230° |
| 2026-04-24 20:30 | 41.19466 | -105.07811 | 30683 ft | 285 kts | 240° |
| 2026-04-24 20:30 | 41.18501 | -105.10080 | 30681 ft | 280 kts | 250° |
| 2026-04-24 20:30 | 41.17927 | -105.12530 | 30678 ft | 278 kts | 261° |
| 2026-04-24 20:30 | 41.17594 | -105.15047 | 30677 ft | 277 kts | 258° |
| 2026-04-24 20:31 | 41.16865 | -105.17394 | 30679 ft | 281 kts | 246° |
| 2026-04-24 20:31 | 41.15727 | -105.19531 | 30683 ft | 288 kts | 235° |
| 2026-04-24 20:31 | 41.14373 | -105.21493 | 30685 ft | 288 kts | 235° |
| 2026-04-24 20:31 | 41.13035 | -105.23482 | 30675 ft | 288 kts | 235° |
| 2026-04-24 20:32 | 41.11693 | -105.25456 | 30674 ft | 289 kts | 234° |
| 2026-04-24 20:32 | 41.10341 | -105.27433 | 30679 ft | 289 kts | 234° |
| 2026-04-24 20:32 | 41.08989 | -105.29411 | 30674 ft | 289 kts | 235° |
| 2026-04-24 20:32 | 41.07639 | -105.31389 | 30665 ft | 289 kts | 235° |
| 2026-04-24 20:33 | 41.06287 | -105.33368 | 30671 ft | 289 kts | 235° |
| 2026-04-24 20:33 | 41.04936 | -105.35344 | 30669 ft | 290 kts | 235° |
| 2026-04-24 20:33 | 41.03642 | -105.37372 | 30663 ft | 284 kts | 242° |
| 2026-04-24 20:33 | 41.02769 | -105.39645 | 30666 ft | 279 kts | 253° |
| 2026-04-24 20:34 | 41.02298 | -105.42112 | 30667 ft | 275 kts | 264° |
| 2026-04-24 20:34 | 41.02261 | -105.44642 | 30674 ft | 276 kts | 274° |
| 2026-04-24 20:34 | 41.02661 | -105.47127 | 30684 ft | 278 kts | 285° |
| 2026-04-24 20:34 | 41.03497 | -105.49472 | 30694 ft | 284 kts | 296° |
| 2026-04-24 20:35 | 41.03698 | -105.49877 | 30691 ft | 285 kts | 298° |
| 2026-04-24 20:50 | 41.04017 | -105.50451 | 30709 ft | 283 kts | 306° |
| 2026-04-24 20:50 | 41.05405 | -105.52308 | 30631 ft | 291 kts | 312° |
| 2026-04-24 20:50 | 41.07217 | -105.53762 | 30172 ft | 319 kts | 326° |
| 2026-04-24 20:50 | 41.09433 | -105.54611 | 29571 ft | 348 kts | 342° |
| 2026-04-24 20:51 | 41.11952 | -105.54573 | 28862 ft | 378 kts | 360° |
| 2026-04-24 20:51 | 41.14539 | -105.53660 | 28174 ft | 384 kts | 8° |
| 2026-04-24 20:51 | 41.16990 | -105.52395 | 27375 ft | 387 kts | 20° |
| 2026-04-24 20:51 | 41.19126 | -105.50146 | 26571 ft | 398 kts | 41° |
| 2026-04-24 20:52 | 41.20710 | -105.47097 | 25781 ft | 403 kts | 60° |
| 2026-04-24 20:52 | 41.21568 | -105.43561 | 25006 ft | 403 kts | 79° |
| 2026-04-24 20:52 | 41.21633 | -105.39872 | 24253 ft | 398 kts | 98° |
| 2026-04-24 20:52 | 41.21246 | -105.36255 | 23528 ft | 392 kts | 100° |
| 2026-04-24 20:53 | 41.20836 | -105.32693 | 22738 ft | 388 kts | 101° |
| 2026-04-24 20:53 | 41.20408 | -105.29176 | 21913 ft | 384 kts | 101° |
| 2026-04-24 20:53 | 41.19999 | -105.25702 | 21099 ft | 378 kts | 101° |
| 2026-04-24 20:53 | 41.19606 | -105.22271 | 20320 ft | 373 kts | 101° |
| 2026-04-24 20:54 | 41.19213 | -105.18891 | 19578 ft | 368 kts | 102° |
| 2026-04-24 20:54 | 41.18820 | -105.15565 | 18822 ft | 360 kts | 101° |
| 2026-04-24 20:54 | 41.18437 | -105.12318 | 18110 ft | 351 kts | 102° |
| 2026-04-24 20:54 | 41.18069 | -105.09191 | 17338 ft | 344 kts | 102° |
| 2026-04-24 20:55 | 41.17697 | -105.06041 | 16551 ft | 338 kts | 102° |
| 2026-04-24 20:55 | 41.17336 | -105.03006 | 15789 ft | 335 kts | 102° |
| 2026-04-24 20:55 | 41.16965 | -104.99967 | 15076 ft | 328 kts | 105° |
| 2026-04-24 20:55 | 41.16056 | -104.97296 | 14008 ft | 313 kts | 133° |
| 2026-04-24 20:56 | 41.14446 | -104.95491 | 12863 ft | 295 kts | 160° |
| 2026-04-24 20:56 | 41.12574 | -104.94972 | 12015 ft | 262 kts | 193° |
| 2026-04-24 20:56 | 41.11013 | -104.95864 | 10964 ft | 240 kts | 228° |
| 2026-04-24 20:56 | 41.10411 | -104.97873 | 9797 ft | 244 kts | 269° |
| 2026-04-24 20:57 | 41.10977 | -104.99878 | 9368 ft | 231 kts | 302° |
| 2026-04-24 20:57 | 41.12332 | -105.01021 | 8703 ft | 241 kts | 336° |
| 2026-04-24 20:57 | 41.14081 | -105.00917 | 7952 ft | 267 kts | 12° |
| 2026-04-24 20:57 | 41.15643 | -104.99616 | 7595 ft | 275 kts | 44° |
| 2026-04-24 20:58 | 41.16539 | -104.97513 | 7689 ft | 253 kts | 69° |
| 2026-04-24 20:58 | 41.16752 | -104.95275 | 7512 ft | 243 kts | 98° |
| 2026-04-24 20:58 | 41.16399 | -104.93131 | 7416 ft | 229 kts | 108° |
| 2026-04-24 20:58 | 41.16180 | -104.91141 | 7445 ft | 213 kts | 94° |
| 2026-04-24 20:59 | 41.16186 | -104.89173 | 7243 ft | 211 kts | 95° |
| 2026-04-24 20:59 | 41.16072 | -104.87366 | 7034 ft | 179 kts | 103° |
| 2026-04-24 20:59 | 41.15938 | -104.85862 | 6785 ft | 153 kts | 102° |
| 2026-04-24 20:59 | 41.15849 | -104.84531 | 6570 ft | 136 kts | 104° |
| 2026-04-24 21:00 | 41.15771 | -104.83348 | 6383 ft | 121 kts | 103° |
| 2026-04-24 21:00 | 41.15687 | -104.82293 | 6257 ft | 109 kts | 108° |
| 2026-04-24 21:00 | 41.15617 | -104.81322 | 6171 ft | 98 kts | 107° |
| 2026-04-24 21:00 | 41.15561 | -104.80518 | 6142 ft | 71 kts | 94° |
| 2026-04-24 21:01 | 41.15538 | -104.80134 | 6135 ft | 28 kts | 98° |
| 2026-04-24 21:01 | 41.15524 | -104.80008 | 6131 ft | 10 kts | 122° |
| 2026-04-24 21:01 | 41.15493 | -104.80014 | 6131 ft | 5 kts | 223° |
| 2026-04-24 21:01 | 41.15465 | -104.80055 | 6132 ft | 7 kts | 230° |
| 2026-04-24 21:02 | 41.15431 | -104.80112 | 6134 ft | 9 kts | 231° |
| 2026-04-24 21:02 | 41.15396 | -104.80187 | 6136 ft | 11 kts | 266° |
| 2026-04-24 21:02 | 41.15404 | -104.80298 | 6139 ft | 13 kts | 275° |
| 2026-04-24 21:02 | 41.15413 | -104.80430 | 6142 ft | 15 kts | 275° |
| 2026-04-24 21:03 | 41.15424 | -104.80583 | 6145 ft | 17 kts | 274° |
| 2026-04-24 21:03 | 41.15433 | -104.80723 | 6148 ft | 10 kts | 259° |
| 2026-04-24 21:03 | 41.15406 | -104.80773 | 6147 ft | 5 kts | 293° |
| 2026-04-24 21:03 | 41.15403 | -104.80793 | 6147 ft | 0 kts | 180° |